Terminal Aerodrome Forecast
Issued by NWS

Home | Current Version | Previous Version | Text Only | Print | Product List | Glossary On
Versions: 1 2 3 4 5 6 7 8 9 10 11 12 13 14 15 16 17 18 19 20 21 22 23 24 25
665
FTUS43 KABR 140214 AAA
TAFMBG
TAF AMD
KMBG 140214Z 1402/1424 14013KT 3/4SM -SN BR VV012
     FM140600 16009KT 2SM -SN OVC015
     FM141100 29006KT P6SM VCSH OVC010
     FM141500 30009KT P6SM SCT035=

USA.gov is the U.S. government's official web portal to all federal, state and local government web resources and services.